Lanes Prairie, Missouri
Current Conditions -  °F | °C
As of 3:53 PM on Monday 24 Nov 2014 (Local Time) from KVIH Reporting Station
Overcast Overcast  
Wind Chill: 35°   Ceiling: 5000
Heat Index: 41°   Visibility: 10mi
Dew Point: 29°   Wind: 10mph
Humidity: 62%   Direction: 280°W
Pressure: 29.81"   Gusts: NA
Location:  38.2601°N, 91.7526°W
Report Text: KVIH 242153Z AUTO 28009KT 10SM BKN050 OVC075 05/M02 A2981 RMK AO2 SLP101 T00501017
Loading
Personal Weather Stations






























Interactive Weather Map New forecast layout! Learn more

10-Day Weather Forecast

Advertisements
Track Severe Weather on mobile